createdAt,value
2018-07-22T00:01:17.093Z,49.0
2018-07-22T00:11:31.499Z,50.6
2018-07-22T00:21:45.845Z,50.7
2018-07-22T00:32:00.146Z,50.1
2018-07-22T00:42:45.877Z,49.4
2018-07-22T00:53:31.863Z,49.2
2018-07-22T01:04:17.490Z,50.0
2018-07-22T01:15:02.932Z,51.7
2018-07-22T01:25:48.936Z,51.6
2018-07-22T01:36:35.093Z,50.3
2018-07-22T01:46:49.197Z,50.3
2018-07-22T01:57:03.217Z,50.9
2018-07-22T02:07:17.778Z,50.2
2018-07-22T02:17:31.684Z,50.6
2018-07-22T02:27:45.823Z,51.2
2018-07-22T02:38:33.384Z,50.9
2018-07-22T02:49:19.622Z,50.1
2018-07-22T02:59:33.722Z,51.0
2018-07-22T03:10:20.129Z,51.0
2018-07-22T03:21:05.780Z,50.0
2018-07-22T03:31:51.999Z,50.3
2018-07-22T03:42:06.050Z,49.9
2018-07-22T03:52:20.285Z,50.2
2018-07-22T04:02:35.114Z,49.8
2018-07-22T04:12:48.641Z,49.4
2018-07-22T04:23:17.814Z,49.8
2018-07-22T04:33:32.331Z,50.0
2018-07-22T04:44:17.893Z,50.1
2018-07-22T04:55:05.589Z,51.0
2018-07-22T05:05:51.307Z,52.5
2018-07-22T05:16:37.062Z,51.9
2018-07-22T05:27:22.839Z,52.5
2018-07-22T05:38:08.874Z,53.2
2018-07-22T05:48:54.496Z,52.6
2018-07-22T05:59:40.192Z,54.7
2018-07-22T06:10:26.287Z,54.9
2018-07-22T06:20:40.874Z,54.3
2018-07-22T06:30:54.513Z,53.6
2018-07-22T06:41:06.856Z,52.6
2018-07-22T06:51:52.276Z,52.7
2018-07-22T07:02:38.077Z,51.6
2018-07-22T07:13:23.528Z,50.7
2018-07-22T07:23:37.860Z,50.5
2018-07-22T07:33:52.318Z,50.1
2018-07-22T07:44:06.652Z,48.0
2018-07-22T07:54:18.346Z,45.6
2018-07-22T08:04:32.492Z,41.8
2018-07-22T08:14:45.853Z,39.6
2018-07-22T08:25:00.093Z,37.9
2018-07-22T08:35:14.257Z,36.4
2018-07-22T08:45:28.260Z,34.7
2018-07-22T08:55:42.215Z,33.9
2018-07-22T09:05:55.750Z,32.3
2018-07-22T09:16:08.957Z,31.0
2018-07-22T09:26:22.465Z,30.4
2018-07-22T09:36:36.860Z,29.3
2018-07-22T09:47:22.633Z,28.6
2018-07-22T09:57:37.190Z,28.7
2018-07-22T10:07:51.089Z,27.6
2018-07-22T10:18:05.717Z,27.5
2018-07-22T10:28:35.383Z,26.6
2018-07-22T10:38:49.655Z,26.6
2018-07-22T10:53:17.636Z,25.9
2018-07-22T11:18:52.052Z,24.0
2018-07-22T11:58:08.647Z,24.4
2018-07-22T12:08:23.508Z,25.9
2018-07-22T12:18:37.144Z,26.3
2018-07-22T14:08:19.561Z,27.1
2018-07-22T14:18:33.969Z,27.3
2018-07-22T14:28:48.426Z,27.7
2018-07-22T14:39:34.033Z,27.4
2018-07-22T14:50:19.738Z,27.1
2018-07-22T15:00:30.859Z,27.0
2018-07-22T15:10:42.791Z,27.7
2018-07-22T15:20:56.988Z,28.3
2018-07-22T15:42:41.270Z,28.5
2018-07-22T15:52:56.267Z,28.6
2018-07-22T16:03:10.293Z,28.9
2018-07-22T16:13:24.271Z,29.4
2018-07-22T16:23:39.356Z,29.8
2018-07-22T16:33:53.887Z,30.1
2018-07-22T16:44:08.853Z,30.2
2018-07-22T16:54:30.677Z,30.7
2018-07-22T17:04:45.292Z,30.8
2018-07-22T17:14:57.708Z,31.1
2018-07-22T17:25:43.814Z,31.6
2018-07-22T17:35:57.675Z,31.8
2018-07-22T17:46:43.148Z,32.8
2018-07-22T17:57:28.494Z,33.2
2018-07-22T18:08:13.989Z,33.3
2018-07-22T18:18:28.305Z,33.7
2018-07-22T18:29:13.338Z,34.4
2018-07-22T18:39:26.911Z,35.2
2018-07-22T18:49:53.881Z,35.8
2018-07-22T19:00:05.878Z,36.3
2018-07-22T19:10:17.801Z,37.4
2018-07-22T19:21:03.099Z,38.1
2018-07-22T19:31:17.422Z,38.7
2018-07-22T19:41:29.843Z,38.7
2018-07-22T19:51:44.354Z,38.4
2018-07-22T20:01:59.186Z,38.8
2018-07-22T20:12:13.678Z,39.1
2018-07-22T20:22:59.194Z,39.4
2018-07-22T20:33:13.472Z,39.9
2018-07-22T20:43:27.167Z,40.1
2018-07-22T20:53:40.894Z,40.6
2018-07-22T21:03:56.550Z,40.5
2018-07-22T21:14:10.158Z,40.9
2018-07-22T21:24:24.370Z,41.2
2018-07-22T21:34:38.406Z,41.4
2018-07-22T21:44:52.745Z,41.7
2018-07-22T21:55:38.303Z,41.7
2018-07-22T22:05:52.740Z,41.7
2018-07-22T22:16:38.582Z,41.8
2018-07-22T22:26:50.648Z,41.9
2018-07-22T22:37:04.712Z,42.1
2018-07-22T22:47:16.005Z,42.0
2018-07-22T22:58:01.937Z,42.0
2018-07-22T23:08:50.009Z,42.0
2018-07-22T23:19:05.499Z,42.3
2018-07-22T23:29:20.084Z,42.6
2018-07-22T23:39:34.193Z,42.8
2018-07-22T23:50:19.597Z,44.0
